Time;durP1;ratioP1;P1;durP2;ratioP2;P2;SDS_P1;SDS_P2;PMS_P1;PMS_P2;Temp;Humidity;BMP_temperature;BMP_pressure;BME280_temperature;BME280_humidity;BME280_pressure;Samples;Min_cycle;Max_cycle;Signal;HPM_P1;HPM_P2
2023/08/18 00:02:24;;;;;;;5.80;2.20;;;28.40;66.80;;;;;;4992644;28;20551;-80
2023/08/18 00:04:50;;;;;;;2.65;2.10;;;28.40;67.00;;;;;;4988780;28;20479;-80
2023/08/18 00:07:16;;;;;;;2.83;2.00;;;28.40;67.10;;;;;;4992654;28;20022;-80
2023/08/18 00:09:43;;;;;;;2.70;2.05;;;28.30;67.20;;;;;;4993157;28;20121;-79
2023/08/18 00:12:10;;;;;;;2.20;2.00;;;28.20;67.60;;;;;;4992007;28;20026;-79
2023/08/18 00:14:36;;;;;;;3.53;1.95;;;28.20;67.90;;;;;;4992263;28;20046;-79
2023/08/18 00:17:01;;;;;;;4.75;2.22;;;28.10;68.40;;;;;;4992625;28;20026;-79
2023/08/18 00:19:27;;;;;;;6.50;2.78;;;28.10;68.80;;;;;;4993089;28;20037;-79
2023/08/18 00:21:53;;;;;;;5.43;2.80;;;28.00;70.00;;;;;;4993305;28;20030;-79
2023/08/18 00:24:18;;;;;;;3.70;2.72;;;27.90;69.60;;;;;;4992668;28;20030;-80
2023/08/18 00:26:45;;;;;;;4.50;3.20;;;27.90;70.50;;;;;;4993942;28;20031;-81
2023/08/18 00:29:11;;;;;;;6.57;3.28;;;27.70;71.30;;;;;;4992595;28;20026;-80
2023/08/18 00:31:37;;;;;;;3.78;2.70;;;27.50;71.70;;;;;;5001634;28;20032;-80
2023/08/18 00:34:04;;;;;;;2.28;2.08;;;27.40;72.00;;;;;;4978964;28;20031;-80
2023/08/18 00:36:31;;;;;;;2.50;2.30;;;27.30;72.20;;;;;;4996282;28;20049;-79
2023/08/18 00:38:58;;;;;;;5.03;3.22;;;27.30;72.80;;;;;;4978682;28;20030;-80
2023/08/18 00:41:24;;;;;;;2.97;2.65;;;27.30;74.00;;;;;;4978936;28;20077;-79
2023/08/18 00:43:51;;;;;;;3.25;2.78;;;27.20;73.60;;;;;;4978186;28;20027;-80
2023/08/18 00:46:18;;;;;;;5.40;2.67;;;27.10;73.60;;;;;;4996531;28;20030;-80
2023/08/18 00:48:44;;;;;;;4.82;2.50;;;27.10;73.50;;;;;;4996184;28;20113;-81
2023/08/18 00:51:10;;;;;;;4.10;2.58;;;27.10;73.60;;;;;;5005346;28;20032;-81
2023/08/18 00:53:38;;;;;;;2.55;2.15;;;27.00;73.50;;;;;;4997780;28;20042;-81
2023/08/18 00:56:05;;;;;;;4.20;2.30;;;27.00;73.50;;;;;;4996075;28;20478;-80
2023/08/18 00:58:31;;;;;;;2.53;2.17;;;27.00;73.50;;;;;;5001421;28;20032;-80
2023/08/18 01:00:57;;;;;;;3.88;2.15;;;27.00;73.50;;;;;;5007264;28;20101;-78
2023/08/18 01:03:23;;;;;;;5.32;2.45;;;27.00;73.60;;;;;;4994399;28;20030;-78
2023/08/18 01:05:48;;;;;;;4.75;2.00;;;27.00;73.40;;;;;;4995826;28;20030;-78
2023/08/18 01:08:14;;;;;;;2.13;1.77;;;27.00;73.50;;;;;;4995706;28;20054;-78
2023/08/18 01:11:06;;;;;;;5.22;2.20;;;27.00;73.30;;;;;;4999470;28;20153;-79
2023/08/18 01:13:34;;;;;;;4.50;2.35;;;26.90;73.50;;;;;;4986577;28;20061;-78
2023/08/18 01:16:03;;;;;;;2.95;1.80;;;26.90;73.40;;;;;;5001543;28;20119;-79
2023/08/18 01:18:29;;;;;;;6.78;2.40;;;26.90;73.70;;;;;;4998676;28;20041;-79
2023/08/18 01:20:58;;;;;;;3.63;1.90;;;26.80;73.60;;;;;;4995428;28;20501;-79
2023/08/18 01:23:38;;;;;;;3.20;2.20;;;26.80;73.40;;;;;;4994983;28;20046;-79
2023/08/18 01:26:04;;;;;;;5.82;2.20;;;26.70;73.40;;;;;;4986274;28;20107;-80
2023/08/18 01:28:31;;;;;;;2.08;1.60;;;26.70;73.30;;;;;;4996603;28;20026;-80
2023/08/18 01:30:57;;;;;;;5.38;2.00;;;26.70;73.30;;;;;;5004445;28;20029;-80
2023/08/18 01:33:38;;;;;;;3.90;1.92;;;26.70;73.30;;;;;;4995388;28;20038;-78
2023/08/18 01:36:08;;;;;;;2.78;1.60;;;26.70;73.20;;;;;;4994673;28;20034;-78
2023/08/18 01:38:35;;;;;;;2.63;1.77;;;26.80;73.30;;;;;;4994556;28;20034;-78
2023/08/18 01:41:02;;;;;;;2.97;1.92;;;26.80;73.40;;;;;;5003479;28;20028;-79
2023/08/18 01:43:30;;;;;;;2.25;1.98;;;26.80;73.50;;;;;;4994149;28;20045;-79
2023/08/18 01:45:55;;;;;;;3.70;2.22;;;26.80;73.50;;;;;;4994913;28;20042;-79
2023/08/18 01:48:21;;;;;;;4.75;1.77;;;26.80;73.40;;;;;;4993483;28;20030;-79
2023/08/18 01:50:47;;;;;;;2.85;1.77;;;26.80;73.80;;;;;;4984846;28;20065;-78
2023/08/18 01:53:13;;;;;;;3.28;1.92;;;26.80;73.60;;;;;;4994338;28;20537;-76
2023/08/18 01:55:38;;;;;;;4.45;2.00;;;26.80;73.90;;;;;;4994711;28;20106;-77
2023/08/18 01:58:04;;;;;;;2.92;1.85;;;26.80;73.80;;;;;;4994595;28;20530;-77
2023/08/18 02:00:30;;;;;;;8.15;2.05;;;26.80;73.90;;;;;;4998542;28;20108;-77
2023/08/18 02:02:55;;;;;;;4.07;2.35;;;26.80;74.10;;;;;;4997666;28;20026;-77
2023/08/18 02:05:21;;;;;;;4.25;2.28;;;26.70;74.50;;;;;;4994546;28;20037;-77
2023/08/18 02:07:47;;;;;;;2.42;2.00;;;26.70;75.00;;;;;;4994677;28;20022;-77
2023/08/18 02:10:12;;;;;;;3.45;1.88;;;26.70;74.60;;;;;;4979600;28;20070;-77
2023/08/18 02:12:38;;;;;;;4.55;2.42;;;26.70;74.70;;;;;;4998898;28;20084;-76
2023/08/18 02:15:04;;;;;;;4.03;1.70;;;26.70;75.10;;;;;;4994385;28;20096;-76
2023/08/18 02:17:30;;;;;;;2.53;1.98;;;26.70;74.90;;;;;;4994322;28;20494;-77
2023/08/18 02:19:59;;;;;;;4.43;2.13;;;26.70;74.80;;;;;;4994647;28;20072;-77
2023/08/18 02:22:25;;;;;;;5.95;2.45;;;26.70;75.00;;;;;;4984057;28;20171;-77
2023/08/18 02:24:52;;;;;;;3.72;2.15;;;26.60;75.20;;;;;;4980565;28;20537;-76
2023/08/18 02:27:18;;;;;;;3.17;1.80;;;26.60;75.00;;;;;;4993584;28;20041;-76
2023/08/18 02:29:44;;;;;;;3.95;2.58;;;26.60;75.10;;;;;;4994199;28;20429;-76
2023/08/18 02:32:09;;;;;;;4.70;2.13;;;26.60;75.50;;;;;;4993907;28;20105;-77
2023/08/18 02:34:35;;;;;;;3.30;2.03;;;26.60;75.30;;;;;;4994379;28;20029;-78
2023/08/18 02:37:01;;;;;;;2.20;2.00;;;26.50;75.30;;;;;;4993339;28;20034;-77
2023/08/18 02:39:27;;;;;;;5.32;2.25;;;26.50;75.50;;;;;;4998248;28;20034;-76
2023/08/18 02:41:54;;;;;;;4.68;2.03;;;26.60;75.60;;;;;;4980101;28;20563;-77
2023/08/18 02:44:20;;;;;;;3.60;2.42;;;26.50;75.90;;;;;;4994110;28;20041;-76
2023/08/18 02:46:49;;;;;;;5.47;2.47;;;26.50;75.80;;;;;;4993947;28;20088;-76
2023/08/18 02:49:15;;;;;;;9.43;2.38;;;26.50;76.20;;;;;;4992701;28;20046;-77
2023/08/18 02:51:42;;;;;;;2.97;2.20;;;26.40;76.40;;;;;;4981030;28;20085;-75
2023/08/18 02:54:08;;;;;;;4.18;2.33;;;26.40;76.00;;;;;;4992949;28;20030;-75
2023/08/18 02:56:33;;;;;;;5.47;2.40;;;26.40;76.30;;;;;;5000014;28;20125;-76
2023/08/18 02:58:59;;;;;;;5.10;2.00;;;26.40;76.50;;;;;;4987606;28;20035;-77
2023/08/18 03:04:15;;;;;;;5.15;2.20;;;26.40;76.40;;;;;;5002893;28;20119;-78
2023/08/18 03:06:42;;;;;;;4.45;2.70;;;26.30;75.90;;;;;;5013472;28;20038;-78
2023/08/18 03:09:07;;;;;;;2.63;1.90;;;26.30;75.80;;;;;;5013485;28;20217;-80
2023/08/18 03:11:34;;;;;;;3.05;1.75;;;26.30;75.90;;;;;;4993173;28;20120;-79
2023/08/18 03:16:50;;;;;;;4.15;2.05;;;26.30;75.70;;;;;;5044149;22;20053;-82
2023/08/18 03:19:16;;;;;;;7.95;3.38;;;26.40;75.90;;;;;;5013298;28;20040;-82
2023/08/18 03:21:42;;;;;;;3.70;2.40;;;26.20;75.90;;;;;;4995100;28;20065;-82
2023/08/18 03:24:08;;;;;;;4.55;2.30;;;26.20;76.00;;;;;;5013628;28;20077;-79
2023/08/18 03:26:33;;;;;;;2.80;1.98;;;26.20;76.20;;;;;;5013020;28;20399;-79
2023/08/18 03:28:59;;;;;;;3.30;2.28;;;26.10;76.00;;;;;;5071697;22;20055;-79
2023/08/18 03:31:25;;;;;;;4.70;2.05;;;26.10;75.90;;;;;;5134572;23;20038;-80
2023/08/18 03:33:51;;;;;;;2.03;1.83;;;26.20;75.80;;;;;;5168673;22;20509;-80
2023/08/18 03:36:17;;;;;;;4.75;2.63;;;26.20;75.70;;;;;;5013121;28;20033;-78
2023/08/18 03:38:42;;;;;;;4.60;2.00;;;26.30;75.40;;;;;;5014087;28;20034;-78
2023/08/18 03:41:09;;;;;;;3.10;1.75;;;26.40;75.30;;;;;;5013249;28;20106;-78
2023/08/18 03:43:36;;;;;;;5.20;2.55;;;26.40;75.20;;;;;;4994151;28;20116;-79
2023/08/18 03:46:21;;;;;;;2.92;1.70;;;26.40;75.10;;;;;;5279266;22;20405;-79
2023/08/18 03:48:47;;;;;;;3.03;1.90;;;26.50;75.00;;;;;;5012076;28;20351;-78
2023/08/18 03:51:14;;;;;;;3.45;2.25;;;26.50;74.90;;;;;;5012992;28;20029;-77
2023/08/18 03:53:39;;;;;;;4.53;2.50;;;26.60;74.90;;;;;;4994774;28;20068;-77
2023/08/18 03:56:05;;;;;;;8.02;2.65;;;26.60;74.90;;;;;;5012061;28;20026;-78
2023/08/18 03:58:31;;;;;;;3.63;2.42;;;26.60;74.80;;;;;;5012486;28;20045;-78
2023/08/18 04:01:08;;;;;;;2.65;2.20;;;26.50;75.10;;;;;;5012907;28;20037;-78
2023/08/18 04:03:35;;;;;;;3.40;2.30;;;26.40;75.50;;;;;;5010470;28;20052;-78
2023/08/18 04:06:02;;;;;;;4.00;3.03;;;26.20;75.70;;;;;;5015570;28;20032;-78
2023/08/18 04:08:28;;;;;;;2.60;2.35;;;26.20;76.10;;;;;;5016376;28;20073;-79
2023/08/18 04:10:53;;;;;;;4.72;2.20;;;26.20;76.20;;;;;;5016871;28;20054;-78
2023/08/18 04:13:19;;;;;;;3.13;2.28;;;26.10;76.40;;;;;;5015956;28;20029;-79
2023/08/18 04:15:45;;;;;;;3.55;2.30;;;26.10;76.40;;;;;;5016444;28;20028;-78
2023/08/18 04:18:11;;;;;;;2.97;2.13;;;26.10;77.00;;;;;;5016288;28;20084;-76
2023/08/18 04:20:36;;;;;;;3.95;2.42;;;26.10;77.30;;;;;;5015709;28;20053;-76
2023/08/18 04:23:02;;;;;;;5.20;3.05;;;26.00;77.20;;;;;;5015591;28;20032;-75
2023/08/18 04:25:28;;;;;;;3.97;2.42;;;26.00;77.60;;;;;;5016166;28;20029;-75
2023/08/18 04:27:53;;;;;;;2.60;2.40;;;26.00;77.40;;;;;;5015722;28;20355;-77
2023/08/18 04:30:19;;;;;;;3.40;2.63;;;26.10;77.10;;;;;;5015532;28;20064;-77
2023/08/18 04:32:45;;;;;;;2.92;2.53;;;26.10;77.30;;;;;;5016055;28;20060;-76
2023/08/18 04:35:10;;;;;;;4.68;2.85;;;26.20;77.30;;;;;;5016465;28;20419;-77
2023/08/18 04:40:59;;;;;;;3.83;2.78;;;26.30;77.20;;;;;;5017895;28;20489;-77
2023/08/18 04:43:26;;;;;;;3.33;2.70;;;26.30;77.00;;;;;;5014865;28;20030;-77
2023/08/18 04:45:53;;;;;;;4.03;2.50;;;26.40;77.10;;;;;;5015749;28;20050;-77
2023/08/18 04:48:22;;;;;;;2.78;2.33;;;26.40;76.90;;;;;;5015523;28;20037;-77
2023/08/18 04:50:48;;;;;;;5.43;3.13;;;26.40;76.80;;;;;;5016188;28;20073;-76
2023/08/18 04:53:34;;;;;;;3.80;2.80;;;26.30;76.70;;;;;;5014434;28;20034;-76
2023/08/18 04:56:04;;;;;;;3.53;2.70;;;26.30;76.80;;;;;;5014560;28;20049;-80
2023/08/18 05:01:33;;;;;;;5.10;2.97;;;26.40;77.50;;;;;;5038058;22;20092;-80
2023/08/18 05:03:59;;;;;;;4.38;2.63;;;26.50;76.80;;;;;;4977316;28;20042;-78
2023/08/18 05:09:08;;;;;;;3.60;2.85;;;26.50;76.80;;;;;;4669066;26;20530;-77
2023/08/18 05:11:34;;;;;;;3.15;2.85;;;26.50;76.70;;;;;;4994975;28;20049;-79
2023/08/18 05:14:00;;;;;;;3.72;3.10;;;26.60;76.80;;;;;;4995624;28;20570;-79
2023/08/18 05:16:25;;;;;;;3.95;2.85;;;26.60;76.80;;;;;;4994287;28;20030;-79
2023/08/18 05:18:51;;;;;;;4.53;2.90;;;26.70;76.70;;;;;;4996539;28;20026;-78
2023/08/18 05:21:17;;;;;;;3.05;2.75;;;26.70;76.50;;;;;;4995592;28;20030;-79
2023/08/18 05:23:43;;;;;;;3.42;2.67;;;26.70;76.60;;;;;;4995652;28;20476;-79
2023/08/18 05:26:09;;;;;;;4.78;2.80;;;26.80;76.60;;;;;;4996050;28;20038;-79
2023/08/18 05:28:35;;;;;;;4.65;3.03;;;26.80;76.50;;;;;;4994595;28;20106;-80
2023/08/18 05:33:31;;;;;;;4.35;2.95;;;26.90;76.40;;;;;;4953996;28;20521;-79
2023/08/18 05:35:58;;;;;;;4.90;2.97;;;26.80;76.30;;;;;;4956290;28;20063;-78
2023/08/18 05:38:24;;;;;;;3.80;2.78;;;26.90;76.40;;;;;;4955914;28;20039;-79
2023/08/18 05:40:50;;;;;;;5.00;2.70;;;26.90;76.10;;;;;;4956340;28;20038;-79
2023/08/18 05:43:18;;;;;;;3.53;3.05;;;26.90;76.00;;;;;;4955346;29;20463;-79
2023/08/18 05:45:46;;;;;;;3.15;2.75;;;26.90;76.10;;;;;;4956730;29;20476;-79
2023/08/18 05:48:12;;;;;;;6.05;3.05;;;27.00;75.90;;;;;;4955171;29;20170;-78
2023/08/18 05:50:39;;;;;;;4.18;2.80;;;27.00;75.80;;;;;;4955932;28;20032;-78
2023/08/18 05:53:05;;;;;;;4.03;3.20;;;27.10;76.30;;;;;;4954784;29;20047;-79
2023/08/18 05:55:32;;;;;;;4.30;3.17;;;27.20;75.90;;;;;;4938864;29;20027;-76
2023/08/18 05:58:02;;;;;;;4.47;2.65;;;27.20;75.70;;;;;;4955065;28;20038;-78
2023/08/18 06:00:29;;;;;;;3.53;3.00;;;27.20;75.70;;;;;;4956078;28;20311;-80
2023/08/18 06:02:55;;;;;;;5.13;3.28;;;27.30;76.00;;;;;;4955006;29;20150;-80
2023/08/18 06:05:23;;;;;;;3.83;2.80;;;27.30;75.80;;;;;;4951861;28;20030;-81
2023/08/18 06:07:48;;;;;;;4.82;3.35;;;27.30;75.60;;;;;;4953998;28;20067;-82
2023/08/18 06:12:49;;;;;;;5.65;3.63;;;27.40;75.30;;;;;;4990320;28;20050;-80
2023/08/18 06:15:19;;;;;;;3.95;2.80;;;27.40;75.00;;;;;;4974268;28;20121;-82
2023/08/18 06:17:46;;;;;;;7.75;3.80;;;27.40;75.20;;;;;;4983542;23;20129;-81
2023/08/18 06:20:12;;;;;;;4.50;3.25;;;27.40;74.80;;;;;;4988349;28;20026;-80
2023/08/18 06:22:38;;;;;;;5.55;2.95;;;27.40;74.80;;;;;;4994606;28;20053;-80
2023/08/18 06:25:08;;;;;;;4.35;2.90;;;27.30;74.70;;;;;;4992810;28;20030;-80
2023/08/18 06:27:34;;;;;;;6.35;2.95;;;27.30;74.60;;;;;;4982847;28;20141;-80
2023/08/18 06:30:00;;;;;;;3.35;3.03;;;27.30;74.70;;;;;;4983975;28;20549;-81
2023/08/18 06:32:25;;;;;;;8.52;3.58;;;27.30;75.00;;;;;;4988512;28;20031;-81
2023/08/18 06:34:51;;;;;;;3.55;2.65;;;27.20;74.90;;;;;;4991543;28;20057;-80
2023/08/18 06:37:18;;;;;;;6.65;3.38;;;27.20;75.10;;;;;;4987770;28;20438;-80
2023/08/18 06:39:44;;;;;;;5.72;3.50;;;27.20;75.10;;;;;;4984908;28;20034;-80
2023/08/18 06:42:10;;;;;;;2.85;2.55;;;27.20;75.10;;;;;;4990538;28;20026;-80
2023/08/18 06:44:36;;;;;;;6.57;3.60;;;27.20;75.40;;;;;;4989564;28;20034;-80
2023/08/18 06:47:02;;;;;;;7.32;2.67;;;27.30;75.50;;;;;;4991799;28;20351;-79
2023/08/18 06:49:27;;;;;;;7.03;3.10;;;27.30;75.40;;;;;;4991879;28;20523;-80
2023/08/18 06:51:53;;;;;;;8.80;3.15;;;27.40;75.20;;;;;;4987119;28;20086;-80
2023/08/18 06:54:19;;;;;;;4.85;3.25;;;27.40;75.90;;;;;;4995824;28;20371;-80
2023/08/18 06:56:44;;;;;;;4.10;2.13;;;27.30;75.40;;;;;;4992167;28;20035;-80
2023/08/18 06:59:12;;;;;;;4.07;2.58;;;27.30;75.30;;;;;;4989811;28;20049;-81
2023/08/18 07:01:39;;;;;;;3.30;2.45;;;27.40;75.60;;;;;;4993086;28;20120;-80
2023/08/18 07:04:05;;;;;;;2.90;2.60;;;27.50;75.30;;;;;;4993044;28;20057;-79
2023/08/18 07:06:32;;;;;;;3.05;2.72;;;27.50;75.00;;;;;;4990505;28;20029;-79
2023/08/18 07:08:58;;;;;;;4.80;3.15;;;27.70;74.70;;;;;;4993921;28;20026;-79
2023/08/18 07:11:24;;;;;;;2.90;2.55;;;27.60;74.10;;;;;;4991429;28;20149;-82
2023/08/18 07:13:50;;;;;;;3.35;2.38;;;27.70;74.50;;;;;;4976270;28;20039;-80
2023/08/18 07:16:25;;;;;;;2.63;2.28;;;27.80;74.40;;;;;;4994969;28;20030;-82
2023/08/18 07:18:50;;;;;;;2.30;2.10;;;28.00;74.40;;;;;;4981178;28;20131;-80
2023/08/18 07:21:33;;;;;;;2.92;2.70;;;28.10;73.60;;;;;;4972191;28;20031;-84
2023/08/18 07:24:00;;;;;;;5.90;2.60;;;28.20;73.40;;;;;;4970541;28;20066;-80
2023/08/18 07:26:26;;;;;;;3.53;2.40;;;28.20;73.40;;;;;;4960693;28;20027;-80
2023/08/18 07:28:52;;;;;;;2.53;2.30;;;28.30;73.50;;;;;;4974219;28;20031;-81
2023/08/18 07:31:21;;;;;;;2.53;2.30;;;28.40;73.10;;;;;;4975131;28;20061;-80
2023/08/18 07:33:50;;;;;;;3.78;2.50;;;28.50;73.00;;;;;;4954756;28;20537;-80
2023/08/18 07:36:15;;;;;;;3.20;2.80;;;28.60;72.90;;;;;;4977937;28;20027;-80
2023/08/18 07:38:41;;;;;;;2.70;2.20;;;28.70;71.90;;;;;;4961315;28;20034;-81
2023/08/18 07:41:07;;;;;;;4.90;3.20;;;28.80;72.10;;;;;;4974005;28;20023;-80
2023/08/18 07:43:33;;;;;;;2.78;2.50;;;28.70;71.10;;;;;;4973428;28;20023;-80
2023/08/18 07:45:59;;;;;;;4.70;2.70;;;28.70;71.90;;;;;;4970063;28;20057;-81
2023/08/18 07:48:28;;;;;;;4.18;3.00;;;28.70;72.30;;;;;;4973361;28;21070;-80
2023/08/18 07:50:53;;;;;;;4.93;2.58;;;28.70;72.10;;;;;;4980718;28;20037;-81
2023/08/18 07:53:19;;;;;;;3.95;3.20;;;28.70;72.20;;;;;;4960969;28;20031;-80
2023/08/18 07:55:46;;;;;;;4.03;3.35;;;28.70;71.80;;;;;;4976179;28;20125;-81
2023/08/18 07:58:12;;;;;;;2.70;2.42;;;28.60;72.00;;;;;;4960068;28;20030;-80
2023/08/18 08:00:38;;;;;;;4.97;2.92;;;28.50;72.40;;;;;;4974960;28;20035;-81
2023/08/18 08:03:04;;;;;;;5.13;2.45;;;28.60;72.90;;;;;;4976357;28;20038;-81
2023/08/18 08:05:30;;;;;;;4.72;3.00;;;28.60;72.70;;;;;;4977033;28;20035;-80
2023/08/18 08:07:55;;;;;;;6.78;3.70;;;28.60;72.50;;;;;;4977744;28;20063;-80
2023/08/18 08:10:21;;;;;;;4.00;3.67;;;28.50;72.00;;;;;;4985238;28;20087;-82
2023/08/18 08:12:48;;;;;;;5.97;3.78;;;28.40;72.40;;;;;;4980658;28;20046;-81
2023/08/18 08:15:17;;;;;;;4.88;3.47;;;28.30;72.40;;;;;;4972285;28;20026;-81
2023/08/18 08:17:43;;;;;;;4.10;3.70;;;28.20;72.70;;;;;;4964959;28;20931;-81
2023/08/18 08:20:16;;;;;;;4.55;3.60;;;28.10;73.40;;;;;;4976821;28;20033;-81
2023/08/18 08:22:43;;;;;;;3.22;2.80;;;28.20;72.70;;;;;;4978510;28;20109;-81
2023/08/18 08:25:10;;;;;;;2.72;2.53;;;28.30;73.00;;;;;;4977400;28;20113;-81
2023/08/18 08:27:36;;;;;;;3.45;2.90;;;28.40;73.00;;;;;;4976024;28;20472;-81
2023/08/18 08:30:03;;;;;;;3.88;3.00;;;28.60;73.00;;;;;;4977230;28;20042;-81
2023/08/18 08:32:28;;;;;;;2.85;2.40;;;28.70;73.20;;;;;;4987363;28;20433;-81
2023/08/18 08:34:54;;;;;;;2.78;2.50;;;28.80;72.70;;;;;;4979184;28;20031;-81
2023/08/18 08:37:20;;;;;;;3.00;2.47;;;29.00;72.80;;;;;;4983609;28;20031;-79
2023/08/18 08:39:46;;;;;;;3.70;3.10;;;29.20;72.70;;;;;;4959055;28;20034;-78
2023/08/18 08:42:11;;;;;;;3.22;2.55;;;29.20;71.60;;;;;;4951395;28;20038;-78
2023/08/18 08:44:38;;;;;;;2.83;2.30;;;29.20;72.40;;;;;;4986907;28;20030;-78
2023/08/18 08:47:05;;;;;;;3.08;2.63;;;29.40;72.20;;;;;;4987452;28;20035;-77
2023/08/18 08:49:32;;;;;;;3.08;2.53;;;29.50;71.90;;;;;;4983746;28;20039;-78
2023/08/18 08:52:07;;;;;;;3.17;2.72;;;29.60;72.20;;;;;;4966754;28;20031;-79
2023/08/18 08:54:40;;;;;;;3.55;2.40;;;29.80;71.60;;;;;;4949761;28;20455;-81
2023/08/18 08:57:09;;;;;;;3.47;2.45;;;30.00;71.80;;;;;;4958974;28;20034;-80
2023/08/18 08:59:36;;;;;;;3.20;2.13;;;30.10;71.70;;;;;;4957889;28;20035;-80
2023/08/18 09:02:03;;;;;;;3.05;2.60;;;30.30;71.70;;;;;;4970049;28;20027;-81
2023/08/18 09:04:29;;;;;;;6.90;3.50;;;30.40;71.00;;;;;;4974780;28;20094;-81
2023/08/18 09:06:55;;;;;;;8.07;2.70;;;30.40;69.90;;;;;;4984929;28;20031;-78
2023/08/18 09:09:22;;;;;;;7.20;3.15;;;30.40;69.30;;;;;;4980142;28;20066;-80
2023/08/18 09:11:48;;;;;;;4.68;2.65;;;30.40;69.80;;;;;;4980160;28;20562;-79
2023/08/18 09:14:15;;;;;;;2.97;2.47;;;30.50;70.30;;;;;;4973608;28;20482;-80
2023/08/18 09:16:44;;;;;;;5.00;3.03;;;30.60;69.90;;;;;;4973649;28;20019;-79
2023/08/18 09:19:13;;;;;;;3.40;2.70;;;30.70;70.40;;;;;;4972329;28;20031;-80
2023/08/18 09:21:39;;;;;;;2.72;2.40;;;30.80;69.90;;;;;;4973333;28;20095;-80
2023/08/18 09:24:05;;;;;;;4.78;3.05;;;30.90;69.80;;;;;;4975487;28;20101;-80
2023/08/18 09:26:31;;;;;;;4.75;2.50;;;31.00;69.90;;;;;;4975072;28;20050;-80
2023/08/18 09:28:57;;;;;;;2.65;2.45;;;31.00;69.60;;;;;;4978001;28;20467;-80
2023/08/18 09:31:23;;;;;;;3.83;3.38;;;31.20;69.80;;;;;;4969440;28;20037;-80
2023/08/18 09:33:51;;;;;;;6.55;3.42;;;31.20;68.50;;;;;;4968125;28;20034;-80
2023/08/18 09:36:18;;;;;;;5.80;3.55;;;31.40;67.80;;;;;;4971151;28;20039;-80
2023/08/18 09:38:44;;;;;;;4.60;2.75;;;31.40;67.40;;;;;;4972018;28;20151;-80
2023/08/18 09:41:11;;;;;;;3.83;2.97;;;31.40;68.20;;;;;;4956080;28;20162;-79
2023/08/18 09:43:38;;;;;;;3.97;3.05;;;31.50;68.20;;;;;;4974471;28;20456;-80
2023/08/18 09:46:05;;;;;;;3.25;2.65;;;31.60;67.60;;;;;;4956831;28;20078;-79
2023/08/18 09:48:37;;;;;;;3.10;2.80;;;31.80;67.10;;;;;;4973220;28;20070;-81
2023/08/18 09:51:06;;;;;;;3.72;2.75;;;31.90;67.40;;;;;;4973594;28;20034;-77
2023/08/18 09:53:33;;;;;;;3.72;3.15;;;31.90;66.60;;;;;;4969679;28;20023;-81
2023/08/18 09:56:13;;;;;;;5.65;3.55;;;32.00;66.50;;;;;;4972408;28;20039;-81
2023/08/18 09:59:21;;;;;;;3.45;3.05;;;32.10;66.50;;;;;;4974413;28;20023;-82
2023/08/18 10:01:49;;;;;;;3.00;2.70;;;32.20;66.70;;;;;;4971240;28;20031;-82
2023/08/18 10:04:25;;;;;;;4.05;3.65;;;32.50;66.80;;;;;;4973754;28;20027;-81
2023/08/18 10:06:53;;;;;;;4.47;2.97;;;32.50;63.90;;;;;;4979070;28;20057;-81
2023/08/18 10:09:22;;;;;;;3.78;3.25;;;32.50;65.40;;;;;;4983490;28;20053;-81
2023/08/18 10:11:50;;;;;;;4.13;3.33;;;32.70;65.90;;;;;;4955045;28;20030;-81
2023/08/18 10:14:18;;;;;;;3.55;3.17;;;32.80;64.70;;;;;;4974489;28;20483;-80
2023/08/18 10:16:45;;;;;;;5.53;3.53;;;32.90;65.40;;;;;;4973868;28;20034;-78
2023/08/18 10:19:10;;;;;;;3.25;2.95;;;33.00;65.70;;;;;;4986353;28;20435;-80
2023/08/18 10:21:36;;;;;;;6.97;3.53;;;33.20;65.40;;;;;;4991641;28;20154;-80
2023/08/18 10:24:09;;;;;;;5.40;3.45;;;33.30;65.30;;;;;;4993817;28;20022;-80
2023/08/18 10:26:39;;;;;;;4.68;3.67;;;33.40;65.60;;;;;;4981203;28;20053;-81
2023/08/18 10:29:17;;;;;;;3.97;3.58;;;33.60;65.60;;;;;;4988277;28;20145;-79
2023/08/18 10:31:49;;;;;;;3.40;3.03;;;33.70;65.40;;;;;;4992430;28;20039;-80
2023/08/18 10:34:22;;;;;;;3.85;3.45;;;33.80;66.00;;;;;;4993100;28;20098;-80
2023/08/18 10:36:56;;;;;;;4.35;3.75;;;33.90;65.20;;;;;;4973000;28;20627;-80
2023/08/18 10:39:24;;;;;;;4.50;3.10;;;34.00;65.20;;;;;;4989642;28;20510;-79
2023/08/18 10:42:07;;;;;;;4.82;3.53;;;34.10;64.40;;;;;;5000695;28;20049;-80
2023/08/18 10:44:32;;;;;;;3.53;3.20;;;34.20;64.30;;;;;;4993790;28;20057;-80
2023/08/18 10:47:23;;;;;;;4.60;3.70;;;34.20;64.10;;;;;;4994240;28;20061;-80
2023/08/18 10:49:48;;;;;;;4.13;3.72;;;34.30;63.70;;;;;;4992651;28;20037;-80
2023/08/18 10:52:15;;;;;;;4.47;3.22;;;34.40;63.80;;;;;;4992978;28;20038;-80
2023/08/18 10:54:40;;;;;;;4.63;3.88;;;34.50;63.70;;;;;;4993255;28;20079;-80
2023/08/18 10:57:07;;;;;;;3.50;3.20;;;34.60;63.50;;;;;;4994475;28;20038;-80
2023/08/18 10:59:32;;;;;;;6.00;3.90;;;34.70;63.20;;;;;;4992609;28;20022;-80
2023/08/18 11:01:58;;;;;;;4.10;3.70;;;34.80;63.20;;;;;;4992509;28;20038;-80
2023/08/18 11:04:25;;;;;;;4.82;3.90;;;34.90;63.10;;;;;;4992925;28;20026;-79
2023/08/18 11:06:51;;;;;;;4.15;3.75;;;35.10;62.70;;;;;;5000335;28;20034;-80
2023/08/18 11:09:17;;;;;;;4.20;3.42;;;35.20;62.30;;;;;;4984889;28;20491;-80
2023/08/18 11:11:43;;;;;;;4.05;3.08;;;35.30;62.10;;;;;;4992391;28;20034;-79
2023/08/18 11:14:08;;;;;;;4.80;3.30;;;35.30;61.60;;;;;;4975748;28;20045;-79
2023/08/18 11:16:36;;;;;;;3.47;3.17;;;35.40;61.60;;;;;;4993978;28;20049;-79
2023/08/18 11:19:04;;;;;;;4.38;3.55;;;35.50;61.30;;;;;;4992948;28;20479;-80
2023/08/18 11:21:33;;;;;;;5.28;4.18;;;35.60;60.90;;;;;;4993914;28;20026;-80
2023/08/18 11:23:59;;;;;;;4.47;3.13;;;35.70;60.80;;;;;;4984783;28;20038;-80
2023/08/18 11:26:25;;;;;;;3.88;3.40;;;35.80;60.40;;;;;;4993132;28;20042;-79
2023/08/18 11:28:51;;;;;;;5.00;3.90;;;36.00;60.50;;;;;;4992728;28;20031;-79
2023/08/18 11:31:16;;;;;;;4.38;3.38;;;36.20;59.80;;;;;;4992814;28;20038;-80
2023/08/18 11:33:42;;;;;;;4.65;3.55;;;36.30;59.80;;;;;;4992111;28;20030;-80
2023/08/18 11:36:11;;;;;;;4.03;3.55;;;36.50;59.60;;;;;;4993377;28;20026;-80
2023/08/18 11:38:38;;;;;;;6.40;3.53;;;36.70;59.00;;;;;;4973192;28;20058;-80
2023/08/18 11:41:04;;;;;;;4.63;3.60;;;36.80;58.50;;;;;;4994966;28;20034;-79
2023/08/18 11:43:30;;;;;;;5.03;3.40;;;36.90;58.40;;;;;;4991434;28;20458;-79
2023/08/18 11:45:56;;;;;;;3.83;3.38;;;37.20;58.30;;;;;;4992795;28;20414;-81
2023/08/18 11:48:23;;;;;;;6.03;3.45;;;37.30;58.20;;;;;;4991581;28;20037;-81
2023/08/18 11:50:55;;;;;;;5.05;3.45;;;37.50;57.90;;;;;;4992104;28;20117;-79
2023/08/18 11:53:29;;;;;;;7.22;3.85;;;37.70;57.50;;;;;;4976694;28;20026;-80
2023/08/18 11:55:57;;;;;;;5.55;3.10;;;38.10;56.30;;;;;;4984523;28;20019;-80
2023/08/18 11:58:24;;;;;;;6.38;4.03;;;38.20;56.90;;;;;;4978904;28;20109;-81
2023/08/18 12:00:50;;;;;;;4.78;3.38;;;38.50;56.00;;;;;;4975168;28;20030;-82
2023/08/18 12:03:24;;;;;;;4.07;3.67;;;38.70;55.90;;;;;;4990964;28;20036;-80
2023/08/18 12:05:51;;;;;;;3.80;3.38;;;39.00;56.10;;;;;;4992455;28;20038;-83
2023/08/18 12:08:17;;;;;;;4.78;3.22;;;39.10;55.40;;;;;;4985086;28;20034;-81
2023/08/18 12:10:44;;;;;;;3.65;3.35;;;39.30;55.10;;;;;;5019985;23;20079;-80
2023/08/18 12:13:12;;;;;;;4.15;3.30;;;39.40;54.90;;;;;;5030869;28;20029;-82
2023/08/18 12:15:38;;;;;;;3.85;3.53;;;39.40;54.20;;;;;;5011908;28;20022;-82
2023/08/18 12:18:06;;;;;;;6.13;3.67;;;39.40;53.60;;;;;;5012934;28;20392;-83
2023/08/18 12:20:32;;;;;;;4.47;3.65;;;39.40;53.80;;;;;;5009918;28;20029;-83
2023/08/18 12:22:58;;;;;;;3.92;3.20;;;39.50;53.60;;;;;;5031943;28;20034;-82
2023/08/18 12:25:25;;;;;;;5.32;3.50;;;39.50;53.20;;;;;;5033406;28;20440;-83
2023/08/18 12:27:51;;;;;;;6.53;3.88;;;39.50;52.90;;;;;;5034242;28;20041;-83
2023/08/18 12:30:19;;;;;;;3.60;3.28;;;39.60;52.70;;;;;;5033647;28;20028;-84
2023/08/18 12:32:49;;;;;;;4.53;3.70;;;39.60;53.00;;;;;;5035661;28;20374;-83
2023/08/18 12:35:15;;;;;;;5.25;3.55;;;39.60;52.20;;;;;;5039226;28;20104;-84
2023/08/18 12:37:41;;;;;;;7.03;3.60;;;39.60;52.20;;;;;;5033484;28;20038;-84
2023/08/18 12:40:10;;;;;;;4.18;3.78;;;39.50;52.00;;;;;;5035489;28;20013;-82
2023/08/18 12:42:36;;;;;;;3.88;3.47;;;39.50;52.40;;;;;;5030697;28;20468;-83
2023/08/18 12:45:02;;;;;;;3.92;3.15;;;39.50;52.80;;;;;;5035951;28;20029;-82
2023/08/18 12:47:28;;;;;;;6.72;3.80;;;39.50;52.50;;;;;;5036051;28;20422;-82
2023/08/18 12:49:55;;;;;;;4.07;3.33;;;39.50;51.20;;;;;;5040928;28;20031;-81
2023/08/18 12:52:20;;;;;;;4.25;3.70;;;39.50;51.50;;;;;;5042862;28;20044;-81
2023/08/18 12:54:46;;;;;;;3.95;3.40;;;39.50;51.60;;;;;;5036106;28;20030;-79
2023/08/18 12:57:13;;;;;;;5.82;4.00;;;39.50;51.60;;;;;;5017603;28;20029;-80
2023/08/18 12:59:38;;;;;;;4.10;3.50;;;39.50;51.90;;;;;;5046283;28;20043;-79
2023/08/18 13:02:04;;;;;;;5.60;3.85;;;39.50;52.10;;;;;;5033636;28;20033;-80
2023/08/18 13:04:31;;;;;;;4.50;4.10;;;39.50;51.80;;;;;;5035556;28;20033;-81
2023/08/18 13:06:57;;;;;;;3.90;3.58;;;39.50;51.20;;;;;;5016883;28;20041;-78
2023/08/18 13:09:27;;;;;;;3.38;3.08;;;39.50;51.50;;;;;;5029168;28;20044;-82